createdAt,value
2022-10-21T00:05:31.782Z,0
2022-10-21T00:15:09.382Z,0
2022-10-21T00:24:46.640Z,0
2022-10-21T00:34:28.565Z,0
2022-10-21T00:44:00.923Z,0
2022-10-21T00:53:38.199Z,0
2022-10-21T01:12:55.016Z,0
2022-10-21T01:22:30.447Z,0
2022-10-21T01:32:07.457Z,0
2022-10-21T01:41:46.526Z,0
2022-10-21T01:51:22.100Z,0
2022-10-21T02:01:01.398Z,0
2022-10-21T02:10:36.821Z,0
2022-10-21T02:20:14.669Z,0
2022-10-21T02:29:51.225Z,0
2022-10-21T02:39:27.783Z,0
2022-10-21T02:49:07.525Z,0
2022-10-21T02:58:44.359Z,0
2022-10-21T03:08:20.050Z,0
2022-10-21T03:17:58.955Z,0
2022-10-21T03:27:36.438Z,0
2022-10-21T03:37:13.276Z,0
2022-10-21T03:46:48.964Z,0
2022-10-21T03:56:26.382Z,0
2022-10-21T04:06:03.750Z,0
2022-10-21T04:15:40.593Z,0
2022-10-21T04:34:54.714Z,0
2022-10-21T04:44:30.915Z,0
2022-10-21T04:54:07.883Z,0
2022-10-21T05:03:44.978Z,0
2022-10-21T05:13:24.280Z,0
2022-10-21T05:22:59.432Z,0
2022-10-21T05:42:12.887Z,0
2022-10-21T05:51:49.709Z,5.63
2022-10-21T06:01:28.321Z,16.88
2022-10-21T06:11:05.787Z,28.13
2022-10-21T06:20:41.505Z,33.75
2022-10-21T06:30:21.869Z,45
2022-10-21T06:39:56.856Z,56.25
2022-10-21T06:49:36.722Z,78.75
2022-10-21T06:59:15.004Z,112.5
2022-10-21T07:08:58.083Z,112.5
2022-10-21T07:18:31.227Z,140.63
2022-10-21T07:28:07.989Z,140.63
2022-10-21T07:37:45.705Z,180
2022-10-21T07:57:04.908Z,230.63
2022-10-21T08:16:18.561Z,241.88
2022-10-21T08:25:57.410Z,275.63
2022-10-21T08:35:35.394Z,286.88
2022-10-21T08:45:13.241Z,286.88
2022-10-21T08:54:53.064Z,202.5
2022-10-21T09:04:28.609Z,174.38
2022-10-21T09:14:07.599Z,140.63
2022-10-21T09:33:21.815Z,225
2022-10-21T09:43:01.500Z,168.75
2022-10-21T09:52:37.430Z,157.5
2022-10-21T10:02:14.707Z,230.63
2022-10-21T10:11:55.724Z,337.5
2022-10-21T10:21:31.838Z,399.38
2022-10-21T10:31:12.707Z,225
2022-10-21T10:40:50.313Z,230.63
2022-10-21T11:09:42.342Z,123.75
2022-10-21T11:28:53.942Z,90
2022-10-21T11:38:29.877Z,95.63
2022-10-21T11:48:07.013Z,112.5
2022-10-21T12:07:21.036Z,95.63
2022-10-21T12:16:58.003Z,90
2022-10-21T12:26:35.496Z,112.5
2022-10-21T12:36:13.232Z,106.88
2022-10-21T12:55:30.728Z,118.13
2022-10-21T13:05:08.485Z,101.25
2022-10-21T13:14:46.442Z,185.63
2022-10-21T13:24:24.924Z,118.13
2022-10-21T13:34:02.948Z,157.5
2022-10-21T13:43:38.769Z,129.38
2022-10-21T13:53:16.874Z,281.25
2022-10-21T14:03:16.655Z,596.25
2022-10-21T14:12:42.200Z,213.75
2022-10-21T14:22:17.228Z,50.63
2022-10-21T14:31:50.641Z,16.88
2022-10-21T14:41:26.850Z,28.13
2022-10-21T14:51:05.380Z,33.75
2022-10-21T15:10:19.490Z,56.25
2022-10-21T15:19:58.512Z,5.63
2022-10-21T15:29:33.843Z,16.88
2022-10-21T15:39:12.417Z,16.88
2022-10-21T15:48:47.819Z,22.5
2022-10-21T15:58:27.343Z,16.88
2022-10-21T16:08:04.485Z,5.63
2022-10-21T16:27:26.498Z,0
2022-10-21T16:36:53.874Z,0
2022-10-21T16:56:07.567Z,0
2022-10-21T17:05:46.715Z,0
2022-10-21T17:15:22.004Z,0
2022-10-21T17:25:01.600Z,0
2022-10-21T17:44:14.694Z,0
2022-10-21T17:53:51.945Z,0
2022-10-21T18:03:31.613Z,0
2022-10-21T18:22:44.465Z,0
2022-10-21T18:32:21.460Z,0
2022-10-21T18:42:00.436Z,0
2022-10-21T18:51:38.484Z,0
2022-10-21T19:01:13.855Z,0
2022-10-21T19:10:51.353Z,0
2022-10-21T19:20:30.653Z,0
2022-10-21T19:30:05.968Z,0
2022-10-21T19:49:22.848Z,0
2022-10-21T19:58:58.594Z,0
2022-10-21T20:08:35.569Z,0
2022-10-21T20:27:52.278Z,0
2022-10-21T20:37:27.795Z,0
2022-10-21T21:06:21.509Z,0
2022-10-21T21:15:57.360Z,0
2022-10-21T21:25:34.999Z,0
2022-10-21T21:35:12.535Z,0
2022-10-21T21:44:48.941Z,0
2022-10-21T21:54:28.479Z,0
2022-10-21T22:04:04.886Z,0
2022-10-21T22:23:19.766Z,0
2022-10-21T22:32:59.281Z,0
2022-10-21T22:42:35.088Z,0
2022-10-21T22:52:12.839Z,0
2022-10-21T23:01:50.401Z,0
2022-10-21T23:11:29.534Z,0
2022-10-21T23:21:06.949Z,0
2022-10-21T23:30:42.898Z,0
2022-10-21T23:40:21.854Z,0
